Time;durP1;ratioP1;P1;durP2;ratioP2;P2;SDS_P1;SDS_P2;PMS_P1;PMS_P2;Temp;Humidity;BMP_temperature;BMP_pressure;BME280_temperature;BME280_humidity;BME280_pressure;Samples;Min_cycle;Max_cycle;Signal;HPM_P1;HPM_P2
2022/02/08 00:00:05;;;;;;;6.85;3.35;;;;;;;0.74;87.88;98128.09;5082231;28;20395;-58
2022/02/08 00:02:34;;;;;;;7.53;3.33;;;;;;;0.61;88.31;98127.53;5132520;27;20382;-59
2022/02/08 00:05:00;;;;;;;6.43;3.22;;;;;;;0.48;88.84;98134.66;5132507;27;20473;-60
2022/02/08 00:07:27;;;;;;;7.93;3.50;;;;;;;0.41;90.19;98136.13;5132436;27;20473;-58
2022/02/08 00:09:53;;;;;;;9.10;3.70;;;;;;;0.30;90.33;98131.06;5130810;28;20395;-55
2022/02/08 00:12:18;;;;;;;7.68;3.60;;;;;;;0.45;90.19;98127.16;5132072;27;20758;-55
2022/02/08 00:14:44;;;;;;;6.28;3.10;;;;;;;0.49;88.98;98128.56;5132246;27;20442;-58
2022/02/08 00:17:10;;;;;;;6.80;3.50;;;;;;;0.33;89.44;98141.13;5132634;28;20431;-57
2022/02/08 00:19:36;;;;;;;7.13;3.23;;;;;;;0.40;90.09;98143.03;5131971;27;20496;-59
2022/02/08 00:22:03;;;;;;;5.20;3.17;;;;;;;0.40;89.47;98132.72;5115048;28;20382;-57
2022/02/08 00:24:29;;;;;;;8.55;3.28;;;;;;;0.47;88.90;98134.78;5132129;27;20466;-54
2022/02/08 00:26:54;;;;;;;6.10;3.07;;;;;;;0.23;90.38;98128.16;5136459;27;20866;-54
2022/02/08 00:29:21;;;;;;;5.50;2.97;;;;;;;0.44;89.58;98133.28;5135812;27;20398;-56
2022/02/08 00:31:46;;;;;;;5.88;2.80;;;;;;;0.52;89.47;98132.63;5136028;27;20505;-53
2022/02/08 00:34:12;;;;;;;6.97;2.72;;;;;;;0.48;89.12;98133.84;5136159;27;20488;-55
2022/02/08 00:36:38;;;;;;;7.65;2.97;;;;;;;0.70;88.54;98125.91;5135937;27;20397;-54
2022/02/08 00:39:05;;;;;;;6.77;3.00;;;;;;;0.95;86.92;98132.34;5133542;27;20419;-57
2022/02/08 00:41:31;;;;;;;6.30;2.80;;;;;;;0.94;86.99;98131.53;5135814;27;20442;-56
2022/02/08 00:44:05;;;;;;;5.40;2.50;;;;;;;0.86;86.46;98131.38;5135583;27;20796;-57
2022/02/08 00:48:59;;;;;;;4.80;2.80;;;;;;;1.10;85.92;98129.25;5136191;27;20477;-57
2022/02/08 00:51:27;;;;;;;6.35;2.65;;;;;;;1.12;85.48;98129.09;5135677;27;20386;-55
2022/02/08 00:53:53;;;;;;;5.50;2.63;;;;;;;1.35;84.87;98122.72;5135594;27;20778;-59
2022/02/08 00:56:19;;;;;;;5.05;2.55;;;;;;;1.31;84.31;98126.53;5135766;27;20394;-54
2022/02/08 00:58:45;;;;;;;7.82;2.67;;;;;;;1.25;84.44;98127.09;5135768;27;20958;-58
2022/02/08 01:01:10;;;;;;;7.22;2.70;;;;;;;1.29;84.69;98127.63;5135046;27;20408;-53
2022/02/08 01:03:36;;;;;;;6.47;2.65;;;;;;;1.32;84.49;98125.59;5135920;27;20518;-56
2022/02/08 01:06:05;;;;;;;4.80;2.50;;;;;;;1.44;84.18;98134.03;5135510;27;20390;-54
2022/02/08 01:08:33;;;;;;;5.10;2.30;;;;;;;1.47;83.48;98128.59;5135769;27;20386;-53
2022/02/08 01:11:00;;;;;;;3.45;2.15;;;;;;;1.56;82.91;98126.00;5116194;27;20391;-56
2022/02/08 01:13:25;;;;;;;4.03;2.37;;;;;;;1.47;82.96;98126.00;5135360;27;20386;-54
2022/02/08 01:15:51;;;;;;;6.90;2.63;;;;;;;1.36;83.75;98129.53;5135210;27;20940;-54
2022/02/08 01:18:17;;;;;;;8.03;2.70;;;;;;;1.44;83.47;98121.94;5135280;27;20406;-53
2022/02/08 01:20:43;;;;;;;3.97;2.30;;;;;;;1.54;83.09;98124.50;5134184;27;20446;-55
2022/02/08 01:23:10;;;;;;;5.40;2.40;;;;;;;1.76;82.38;98123.41;5135336;27;20383;-57
2022/02/08 01:25:44;;;;;;;4.88;2.25;;;;;;;1.53;83.18;98134.03;5134894;27;20410;-59
2022/02/08 01:34:06;;;;;;;5.70;2.50;;;;;;;1.31;83.54;98131.72;5135934;27;20475;-59
2022/02/08 01:39:24;;;;;;;6.15;2.40;;;;;;;1.33;83.90;98134.16;5115937;27;20407;-59
2022/02/08 01:47:31;;;;;;;3.58;2.10;;;;;;;1.29;84.34;98137.94;5135008;27;20964;-56
2022/02/08 01:49:38;;;;;;;6.47;2.45;;;;;;;1.35;83.91;98135.66;5118310;27;20427;-54
2022/02/08 01:52:05;;;;;;;3.17;2.13;;;;;;;1.47;83.55;98131.97;5122515;27;20766;-54
2022/02/08 01:54:31;;;;;;;5.73;2.10;;;;;;;1.45;83.13;98125.34;5133351;27;20486;-54
2022/02/08 01:56:57;;;;;;;6.40;2.40;;;;;;;1.61;81.98;98136.75;5134185;27;20428;-57
2022/02/08 01:59:23;;;;;;;5.80;2.20;;;;;;;1.61;82.06;98129.00;5132795;27;20406;-53
2022/02/08 02:01:49;;;;;;;5.80;2.45;;;;;;;1.51;82.03;98127.34;5134810;27;20493;-53
2022/02/08 02:04:15;;;;;;;6.77;2.40;;;;;;;1.54;82.14;98127.09;5134286;27;20448;-55
2022/02/08 02:06:41;;;;;;;5.50;2.20;;;;;;;1.70;82.00;98129.94;5134390;27;20402;-57
2022/02/08 02:09:07;;;;;;;2.93;2.17;;;;;;;1.57;82.30;98127.63;5134531;27;20525;-53
2022/02/08 02:11:32;;;;;;;4.37;2.20;;;;;;;1.64;81.56;98117.56;5134283;27;20440;-54
2022/02/08 02:13:58;;;;;;;4.80;2.10;;;;;;;1.81;81.14;98123.78;5134376;27;20459;-53
2022/02/08 02:16:54;;;;;;;5.93;2.40;;;;;;;1.65;82.19;98130.34;5133969;27;20436;-55
2022/02/08 02:19:09;;;;;;;3.72;1.60;;;;;;;1.53;82.20;98133.22;5132334;27;20532;-53
2022/02/08 02:21:35;;;;;;;6.20;2.17;;;;;;;1.64;81.67;98130.47;5133976;27;20398;-55
2022/02/08 02:24:01;;;;;;;4.90;2.20;;;;;;;1.58;81.86;98131.84;5134387;27;20390;-59
2022/02/08 02:26:26;;;;;;;5.82;1.90;;;;;;;1.77;81.95;98135.38;5134883;27;20751;-58
2022/02/08 02:28:51;;;;;;;5.40;2.22;;;;;;;1.78;81.10;98119.75;5134596;27;20410;-62
2022/02/08 02:31:18;;;;;;;3.57;1.97;;;;;;;1.76;81.29;98115.66;5134168;27;20447;-57
2022/02/08 02:33:44;;;;;;;6.03;1.90;;;;;;;1.90;81.33;98113.44;5133995;27;20405;-58
2022/02/08 02:36:09;;;;;;;4.30;2.08;;;;;;;1.91;80.31;98116.84;5134048;27;20759;-57
2022/02/08 02:38:36;;;;;;;5.22;2.30;;;;;;;1.92;80.85;98118.47;5131765;27;20422;-57
2022/02/08 02:41:01;;;;;;;5.22;2.30;;;;;;;1.86;80.71;98114.66;5132972;27;20480;-60
2022/02/08 02:43:28;;;;;;;4.27;2.10;;;;;;;1.94;80.30;98116.56;5133090;27;20481;-60
2022/02/08 02:45:54;;;;;;;3.33;2.17;;;;;;;1.89;79.94;98101.50;5133594;27;20394;-59
2022/02/08 02:48:19;;;;;;;6.65;1.95;;;;;;;2.07;79.43;98104.94;5132939;27;20379;-54
2022/02/08 02:50:52;;;;;;;6.30;2.20;;;;;;;1.94;80.66;98107.06;5133899;27;20382;-54
2022/02/08 02:53:17;;;;;;;7.30;2.05;;;;;;;2.08;79.08;98111.75;5132882;27;20386;-58
2022/02/08 02:55:43;;;;;;;4.10;1.83;;;;;;;2.10;78.80;98119.38;5132837;27;20405;-58
2022/02/08 02:58:09;;;;;;;6.80;2.10;;;;;;;2.02;79.73;98111.50;5133150;27;20402;-56
2022/02/08 03:00:51;;;;;;;4.88;1.80;;;;;;;1.95;80.46;98118.22;5133069;27;20720;-59
2022/02/08 03:19:23;;;;;;;5.53;2.00;;;;;;;2.40;77.16;98126.06;5132744;27;20421;-58
2022/02/08 03:21:48;;;;;;;3.83;1.80;;;;;;;2.41;76.73;98125.94;5132070;27;20850;-58
2022/02/08 03:24:14;;;;;;;4.30;1.80;;;;;;;2.26;76.76;98123.97;5132626;27;20443;-59
2022/02/08 03:26:39;;;;;;;4.17;1.70;;;;;;;2.28;77.28;98128.06;5132375;27;20402;-60
2022/02/08 03:29:06;;;;;;;3.20;1.57;;;;;;;2.22;77.81;98132.97;5132885;27;20390;-58
2022/02/08 03:31:31;;;;;;;5.38;2.00;;;;;;;2.22;78.05;98138.97;5132533;27;20805;-58
2022/02/08 03:33:57;;;;;;;3.73;1.87;;;;;;;2.33;77.34;98140.56;5132560;27;20440;-59
2022/02/08 03:36:22;;;;;;;6.27;1.80;;;;;;;2.29;77.41;98141.78;5132459;27;20403;-57
2022/02/08 03:38:59;;;;;;;7.17;2.07;;;;;;;2.38;77.22;98138.34;5135622;27;20448;-55
2022/02/08 03:41:28;;;;;;;5.68;1.85;;;;;;;2.47;76.67;98138.31;5151739;27;20908;-57
2022/02/08 03:43:54;;;;;;;4.57;1.65;;;;;;;2.42;76.96;98137.94;5153037;27;20803;-58
2022/02/08 03:46:22;;;;;;;5.13;1.92;;;;;;;2.52;77.17;98135.28;5153188;27;20392;-57
2022/02/08 03:48:48;;;;;;;5.88;2.15;;;;;;;2.33;77.44;98146.53;5153802;27;20392;-59
2022/02/08 03:51:16;;;;;;;5.30;1.60;;;;;;;2.26;77.53;98142.06;5152977;27;20393;-59
2022/02/08 03:53:44;;;;;;;4.60;1.80;;;;;;;2.16;77.53;98138.69;5153794;27;20421;-59
2022/02/08 03:56:15;;;;;;;5.43;1.98;;;;;;;2.13;78.12;98133.78;5153296;27;20433;-59
2022/02/08 03:58:41;;;;;;;3.72;1.70;;;;;;;2.14;77.85;98140.59;5153570;27;20799;-59
2022/02/08 04:03:55;;;;;;;5.70;2.00;;;;;;;2.05;78.43;98137.91;5157811;27;20475;-58
2022/02/08 04:06:21;;;;;;;3.30;1.75;;;;;;;2.17;77.84;98137.75;5157413;27;20393;-59
2022/02/08 04:08:46;;;;;;;3.80;1.77;;;;;;;2.21;77.76;98131.31;5157158;27;20606;-59
2022/02/08 04:11:13;;;;;;;6.33;2.07;;;;;;;2.19;77.35;98133.22;5157326;27;20412;-57
2022/02/08 04:13:56;;;;;;;5.88;1.95;;;;;;;2.25;77.23;98136.06;5155300;27;20388;-59
2022/02/08 04:16:27;;;;;;;6.75;1.90;;;;;;;2.33;76.52;98136.19;5157377;27;20481;-58
2022/02/08 04:19:11;;;;;;;5.60;2.17;;;;;;;2.27;77.41;98141.13;5156789;27;20440;-59
2022/02/08 04:41:10;;;;;;;6.47;2.10;;;;;;;2.55;76.19;98147.16;5103548;27;20417;-60
2022/02/08 04:43:25;;;;;;;5.55;1.83;;;;;;;2.28;76.33;98148.75;5116512;27;20412;-59
2022/02/08 04:45:57;;;;;;;2.75;1.70;;;;;;;2.31;76.81;98155.38;5115364;27;20380;-60
2022/02/08 04:48:31;;;;;;;5.13;1.73;;;;;;;2.25;76.86;98146.41;5115230;27;20434;-59
2022/02/08 04:51:11;;;;;;;3.55;1.55;;;;;;;2.36;76.36;98148.03;5115339;28;20853;-59
2022/02/08 04:53:43;;;;;;;4.20;1.80;;;;;;;2.22;76.53;98138.13;5129310;27;20413;-60
2022/02/08 04:56:19;;;;;;;5.22;1.80;;;;;;;2.26;76.59;98149.81;5133794;27;20386;-59
2022/02/08 04:58:54;;;;;;;2.97;1.60;;;;;;;2.23;76.49;98145.72;5116170;27;20465;-58
2022/02/08 05:01:33;;;;;;;4.60;1.70;;;;;;;2.31;76.07;98147.63;5115236;28;20428;-60
2022/02/08 05:34:36;;;;;;;5.15;1.58;;;;;;;2.43;75.92;98128.41;5134470;27;20389;-59
2022/02/08 05:47:47;;;;;;;3.83;1.70;;;;;;;2.32;77.55;98142.31;5070574;28;20399;-59
2022/02/08 05:50:41;;;;;;;4.38;1.52;;;;;;;2.43;76.23;98141.34;5070704;28;20744;-59
2022/02/08 05:54:07;;;;;;;5.57;1.70;;;;;;;2.58;76.23;98145.06;5070820;28;20492;-57
2022/02/08 05:56:02;;;;;;;5.38;1.90;;;;;;;2.54;75.76;98140.34;5051410;28;20474;-58
2022/02/08 05:58:27;;;;;;;3.60;1.45;;;;;;;2.67;76.58;98135.66;5070836;28;20486;-58
2022/02/08 06:00:53;;;;;;;5.45;1.60;;;;;;;2.67;76.09;98138.25;5070800;28;20403;-59
2022/02/08 06:03:19;;;;;;;6.95;1.60;;;;;;;2.70;76.01;98136.16;5070189;28;20399;-58
2022/02/08 06:05:45;;;;;;;5.13;1.98;;;;;;;2.72;75.52;98138.63;5070341;28;20469;-57
2022/02/08 06:08:10;;;;;;;4.10;1.63;;;;;;;2.72;75.61;98134.25;5070329;28;20908;-59
2022/02/08 06:10:45;;;;;;;5.20;1.95;;;;;;;2.54;75.61;98129.97;5070234;28;20412;-57
2022/02/08 06:13:11;;;;;;;5.20;1.98;;;;;;;2.62;76.12;98136.06;5102011;27;20424;-59
2022/02/08 06:15:38;;;;;;;6.72;1.65;;;;;;;2.56;76.60;98134.06;5134435;27;20496;-60
2022/02/08 06:18:03;;;;;;;4.70;1.60;;;;;;;2.60;76.81;98129.41;5133627;27;20410;-59
2022/02/08 06:20:29;;;;;;;5.47;1.80;;;;;;;2.50;77.33;98125.09;5133105;27;20391;-58
2022/02/08 06:22:54;;;;;;;7.22;1.77;;;;;;;2.92;75.92;98134.97;5132819;27;20390;-60
2022/02/08 06:25:20;;;;;;;4.23;1.83;;;;;;;2.80;75.31;98134.34;5150189;27;20399;-62
2022/02/08 06:27:49;;;;;;;5.07;1.53;;;;;;;2.94;75.09;98130.47;5154089;27;20480;-59
2022/02/08 06:30:16;;;;;;;5.38;1.88;;;;;;;2.81;75.71;98135.16;5147381;27;20405;-58
2022/02/08 06:32:44;;;;;;;4.75;1.83;;;;;;;2.86;75.64;98135.53;5133789;27;20386;-56
2022/02/08 06:35:43;;;;;;;4.88;1.90;;;;;;;2.62;77.06;98136.06;5135880;27;20401;-56
2022/02/08 06:38:12;;;;;;;8.25;1.80;;;;;;;3.00;75.43;98139.44;5135087;27;20424;-58
2022/02/08 06:40:38;;;;;;;3.22;1.55;;;;;;;3.00;75.52;98142.84;5095208;28;20392;-58
2022/02/08 06:43:04;;;;;;;4.60;1.70;;;;;;;2.84;75.57;98135.69;5131051;27;20382;-58
2022/02/08 06:45:31;;;;;;;6.78;1.95;;;;;;;3.12;75.50;98141.63;5127808;27;20392;-62
2022/02/08 06:47:56;;;;;;;3.97;1.90;;;;;;;2.95;75.63;98137.28;5112302;28;20949;-61
2022/02/08 06:50:22;;;;;;;5.20;1.85;;;;;;;3.01;75.61;98135.88;5123914;27;20494;-59
2022/02/08 06:52:48;;;;;;;4.47;2.00;;;;;;;2.92;75.03;98138.38;5132816;27;20389;-57
2022/02/08 06:55:14;;;;;;;6.32;1.73;;;;;;;3.03;74.71;98132.16;5130129;27;20481;-60
2022/02/08 06:57:51;;;;;;;4.55;1.50;;;;;;;2.99;74.79;98132.59;5112494;27;20776;-59
2022/02/08 07:00:21;;;;;;;5.45;2.10;;;;;;;2.89;75.21;98130.91;5122402;27;20883;-58
2022/02/08 07:02:50;;;;;;;6.55;2.00;;;;;;;2.92;74.88;98122.00;5132707;27;20398;-57
2022/02/08 07:05:16;;;;;;;5.93;2.30;;;;;;;3.00;74.41;98134.25;5130566;27;20893;-59
2022/02/08 07:07:41;;;;;;;5.95;1.55;;;;;;;3.09;74.17;98136.75;5113198;27;20407;-60
2022/02/08 07:10:07;;;;;;;6.78;2.00;;;;;;;3.10;74.26;98143.59;5123232;27;20814;-61
2022/02/08 07:12:33;;;;;;;5.85;1.70;;;;;;;3.21;74.58;98147.75;5112315;28;20391;-64
2022/02/08 07:15:06;;;;;;;4.13;1.50;;;;;;;3.25;73.36;98152.47;5111724;28;20471;-58
2022/02/08 07:17:31;;;;;;;7.18;1.95;;;;;;;3.11;74.91;98153.00;5117053;27;20407;-59
2022/02/08 07:20:17;;;;;;;4.65;1.88;;;;;;;3.37;73.12;98150.47;5111180;28;20400;-58
2022/02/08 07:22:43;;;;;;;4.05;1.73;;;;;;;3.29;73.28;98151.22;5102820;27;20511;-59
2022/02/08 07:25:09;;;;;;;5.33;1.80;;;;;;;3.39;73.46;98160.72;5111679;28;20483;-61
2022/02/08 07:27:35;;;;;;;5.27;1.77;;;;;;;3.27;73.91;98160.94;5112407;28;20929;-58
2022/02/08 07:30:08;;;;;;;5.20;1.67;;;;;;;3.57;72.86;98162.31;5126775;27;20481;-59
2022/02/08 07:32:38;;;;;;;5.55;1.88;;;;;;;3.52;73.60;98161.13;5128167;27;20408;-59
2022/02/08 07:42:55;;;;;;;6.03;2.00;;;;;;;4.46;70.33;98146.56;5152973;27;20396;-53
2022/02/08 07:45:21;;;;;;;7.75;1.70;;;;;;;4.21;71.19;98144.81;5153003;27;20729;-57
2022/02/08 07:47:46;;;;;;;3.77;1.67;;;;;;;4.28;70.99;98138.06;5152984;27;20392;-57
2022/02/08 07:50:15;;;;;;;5.20;2.00;;;;;;;4.26;70.78;98137.38;5152237;27;20388;-58
2022/02/08 07:52:43;;;;;;;5.88;1.90;;;;;;;4.25;70.63;98138.34;5152780;27;20377;-58
2022/02/08 07:55:09;;;;;;;6.50;2.00;;;;;;;4.17;70.68;98136.53;5153106;27;20373;-59
2022/02/08 07:57:34;;;;;;;5.85;1.70;;;;;;;4.21;70.94;98135.25;5153223;27;20418;-58
2022/02/08 08:00:00;;;;;;;4.37;1.87;;;;;;;4.35;70.24;98131.28;5152232;27;20409;-58
2022/02/08 08:02:25;;;;;;;4.53;1.87;;;;;;;4.47;69.72;98133.44;5151828;27;20472;-56
2022/02/08 08:04:51;;;;;;;6.47;1.90;;;;;;;4.39;69.99;98135.22;5152219;27;20381;-57
2022/02/08 08:07:16;;;;;;;8.10;1.97;;;;;;;4.17;70.60;98131.34;5152410;27;20388;-59
2022/02/08 08:09:43;;;;;;;5.82;2.00;;;;;;;3.80;72.60;98141.13;5152757;27;20381;-59
2022/02/08 08:12:12;;;;;;;4.95;1.58;;;;;;;4.08;71.22;98137.44;5141081;27;20396;-58
2022/02/08 08:14:37;;;;;;;2.67;1.55;;;;;;;4.05;71.40;98130.78;5152813;27;20468;-56
2022/02/08 08:19:49;;;;;;;5.47;1.90;;;;;;;4.41;70.73;98143.63;5152169;27;20527;-55
2022/02/08 08:22:17;;;;;;;5.53;2.05;;;;;;;4.26;71.56;98137.38;5151670;27;20833;-59
2022/02/08 08:24:43;;;;;;;5.93;1.67;;;;;;;4.42;71.49;98140.06;5152295;27;20424;-57
2022/02/08 08:27:08;;;;;;;4.13;1.77;;;;;;;4.68;70.19;98135.66;5152046;27;20514;-56
2022/02/08 08:29:34;;;;;;;7.63;1.77;;;;;;;4.66;70.17;98129.81;5140416;27;20934;-57
2022/02/08 08:31:59;;;;;;;5.17;1.70;;;;;;;4.82;70.01;98136.84;5151875;27;20483;-58
2022/02/08 08:34:25;;;;;;;4.20;1.50;;;;;;;4.94;68.98;98133.81;5151728;27;20869;-57
2022/02/08 08:36:51;;;;;;;6.13;1.60;;;;;;;4.95;69.10;98132.03;5151902;27;20396;-56
2022/02/08 08:39:23;;;;;;;6.75;1.73;;;;;;;5.01;69.14;98126.22;5115364;27;20519;-55
2022/02/08 08:42:09;;;;;;;5.90;1.40;;;;;;;5.35;68.03;98126.91;5110485;28;20887;-55
2022/02/08 08:44:59;;;;;;;5.25;1.30;;;;;;;5.29;67.96;98119.78;5110814;28;20404;-52
2022/02/08 08:50:17;;;;;;;5.85;1.60;;;;;;;5.21;67.17;98109.34;5114188;28;20891;-58
2022/02/08 08:52:46;;;;;;;5.57;1.50;;;;;;;5.35;66.73;98110.53;5114141;28;20909;-61
2022/02/08 08:55:16;;;;;;;4.10;1.50;;;;;;;5.22;67.04;98111.00;5114147;28;20797;-58
2022/02/08 08:57:42;;;;;;;5.82;1.73;;;;;;;5.19;67.24;98103.50;5114725;28;20428;-58
2022/02/08 09:00:10;;;;;;;4.40;1.57;;;;;;;5.23;66.71;98110.03;5113872;28;20401;-58
2022/02/08 09:02:36;;;;;;;5.30;1.77;;;;;;;5.17;66.92;98120.22;5113982;28;20485;-58
2022/02/08 09:05:06;;;;;;;4.10;1.42;;;;;;;5.15;67.02;98115.19;5114346;28;20453;-57
2022/02/08 09:07:32;;;;;;;6.40;2.10;;;;;;;4.99;67.20;98110.78;5113826;28;20733;-57
2022/02/08 09:10:00;;;;;;;6.90;2.00;;;;;;;4.96;67.55;98110.25;5113810;28;20405;-59
2022/02/08 09:12:38;;;;;;;4.10;1.50;;;;;;;5.15;67.16;98103.97;5114059;28;20450;-59
2022/02/08 09:15:19;;;;;;;7.22;1.88;;;;;;;5.17;67.05;98094.25;5113679;28;20396;-59
2022/02/08 09:18:21;;;;;;;8.13;2.00;;;;;;;5.28;66.22;98096.53;5114274;28;20451;-59
2022/02/08 09:24:07;;;;;;;4.83;1.87;;;;;;;5.37;66.19;98092.97;5114076;28;20383;-56
2022/02/08 09:29:10;;;;;;;5.82;1.63;;;;;;;5.50;65.90;98101.09;5112787;28;20492;-58
2022/02/08 09:31:37;;;;;;;5.75;1.42;;;;;;;5.50;66.07;98108.91;5113604;28;20818;-56
2022/02/08 09:34:05;;;;;;;6.13;1.67;;;;;;;5.67;65.99;98110.53;5112704;28;20769;-59
2022/02/08 09:36:30;;;;;;;4.30;1.60;;;;;;;5.89;65.23;98110.88;5112831;28;20764;-59
2022/02/08 09:38:56;;;;;;;6.22;2.42;;;;;;;5.89;65.34;98110.88;5111326;27;20416;-59
2022/02/08 09:41:23;;;;;;;2.77;1.50;;;;;;;6.30;64.42;98122.81;5121163;27;20385;-57
2022/02/08 09:43:50;;;;;;;6.32;1.48;;;;;;;6.40;63.29;98128.69;5134142;27;20724;-57
2022/02/08 09:46:18;;;;;;;15.65;2.40;;;;;;;6.12;66.25;98124.84;5114966;27;20388;-55
2022/02/08 09:48:50;;;;;;;7.20;1.67;;;;;;;6.12;64.40;98133.47;5098416;27;20412;-59
2022/02/08 09:51:17;;;;;;;5.65;1.98;;;;;;;6.44;63.37;98136.97;5123625;27;20383;-61
2022/02/08 09:53:43;;;;;;;5.35;1.75;;;;;;;6.18;64.08;98121.59;5124406;27;20383;-61
2022/02/08 09:56:11;;;;;;;5.47;1.45;;;;;;;6.17;63.92;98110.34;5117153;27;20902;-61
2022/02/08 09:58:37;;;;;;;5.43;1.58;;;;;;;6.23;64.40;98107.09;5132819;27;20445;-61
2022/02/08 10:01:21;;;;;;;4.85;1.50;;;;;;;6.68;63.15;98119.47;5133342;27;20422;-60
2022/02/08 10:04:01;;;;;;;5.32;1.85;;;;;;;6.72;62.92;98106.91;5124111;27;20432;-62
2022/02/08 10:06:29;;;;;;;4.47;1.70;;;;;;;6.66;65.51;98102.38;5132100;27;20394;-66
2022/02/08 10:08:58;;;;;;;3.75;1.30;;;;;;;7.42;67.01;98088.56;5133444;27;20469;-66
2022/02/08 10:11:28;;;;;;;3.85;1.50;;;;;;;7.34;61.96;98080.81;5131640;27;20382;-61
2022/02/08 10:14:03;;;;;;;4.93;1.73;;;;;;;7.34;61.23;98086.84;5108996;28;20388;-61
2022/02/08 10:20:08;;;;;;;6.07;1.75;;;;;;;7.29;63.64;98083.97;5118159;27;20429;-57
2022/02/08 10:22:32;;;;;;;3.97;1.80;;;;;;;7.37;61.09;98078.66;5131743;27;20395;-59
2022/02/08 10:25:07;;;;;;;7.13;1.55;;;;;;;8.57;63.75;98089.97;5121008;27;20555;-63
2022/02/08 10:27:49;;;;;;;5.82;1.60;;;;;;;8.97;56.87;98099.91;5099870;27;20396;-53
2022/02/08 10:38:39;;;;;;;4.47;1.48;;;;;;;7.57;60.93;98119.94;5119891;27;20454;-55
2022/02/08 10:41:17;;;;;;;5.50;1.60;;;;;;;7.83;60.23;98125.59;5132727;27;20394;-60
2022/02/08 10:43:55;;;;;;;4.93;1.33;;;;;;;8.31;59.49;98119.13;5115362;27;20410;-58
2022/02/08 10:46:21;;;;;;;3.88;1.50;;;;;;;7.99;60.05;98115.03;5114304;27;20750;-57
2022/02/08 10:48:59;;;;;;;2.63;1.20;;;;;;;7.67;60.72;98121.34;5133335;27;20387;-56
2022/02/08 10:51:25;;;;;;;3.58;1.52;;;;;;;7.69;60.86;98121.94;5132740;27;20485;-56
2022/02/08 10:54:02;;;;;;;3.40;1.37;;;;;;;7.73;60.49;98138.09;5133249;27;20414;-59
2022/02/08 10:56:32;;;;;;;2.40;1.30;;;;;;;8.13;60.58;98127.31;5117551;27;20425;-60
2022/02/08 11:02:03;;;;;;;4.50;1.20;;;;;;;8.35;59.66;98115.19;5112081;27;20539;-57
2022/02/08 11:04:44;;;;;;;4.20;1.50;;;;;;;8.03;60.41;98124.13;5132854;27;20394;-57
2022/02/08 11:07:20;;;;;;;4.00;1.42;;;;;;;8.04;60.21;98119.72;5132376;27;20755;-56
2022/02/08 11:12:37;;;;;;;3.38;1.30;;;;;;;8.01;60.82;98112.25;5058288;28;20438;-61
2022/02/08 11:20:30;;;;;;;4.43;1.45;;;;;;;8.88;59.06;98116.69;5070545;28;20426;-57
2022/02/08 11:23:02;;;;;;;3.63;1.20;;;;;;;9.06;59.46;98117.13;5071272;28;20391;-57
2022/02/08 11:25:38;;;;;;;2.53;1.20;;;;;;;9.41;57.88;98115.50;5070732;28;20399;-59
2022/02/08 11:28:20;;;;;;;4.25;1.35;;;;;;;9.70;56.65;98111.09;5071088;28;20418;-59
2022/02/08 11:31:08;;;;;;;2.38;1.17;;;;;;;10.05;56.38;98107.56;5070906;28;20465;-60
2022/02/08 11:47:20;;;;;;;4.07;1.42;;;;;;;9.97;58.97;98100.66;5071400;28;20410;-60
2022/02/08 11:50:03;;;;;;;3.13;1.20;;;;;;;10.11;58.56;98098.13;5070927;28;20437;-59
2022/02/08 11:58:14;;;;;;;3.30;1.23;;;;;;;10.09;60.38;98085.22;5038506;28;20779;-60
2022/02/08 12:00:43;;;;;;;2.15;1.10;;;;;;;10.37;59.88;98090.47;5070483;28;20410;-60
2022/02/08 12:08:17;;;;;;;2.65;1.20;;;;;;;10.28;61.34;98083.78;5070885;28;20751;-60
2022/02/08 12:10:53;;;;;;;3.28;1.05;;;;;;;10.47;63.27;98083.09;5080002;28;20456;-57
2022/02/08 12:35:43;;;;;;;2.47;1.00;;;;;;;10.80;62.65;98078.81;5115167;28;20978;-57
2022/02/08 13:05:34;;;;;;;3.47;0.83;;;;;;;10.69;64.78;98061.00;5112856;28;20927;-59
2022/02/08 13:17:49;;;;;;;1.38;0.73;;;;;;;10.84;64.28;98059.03;5098523;28;20803;-63
2022/02/08 14:08:54;;;;;;;3.22;1.10;;;;;;;10.30;65.89;98035.44;5047656;28;20408;-60
2022/02/08 14:14:09;;;;;;;3.40;0.90;;;;;;;10.47;66.02;98040.34;5107841;28;20447;-61
2022/02/08 14:16:49;;;;;;;1.30;0.90;;;;;;;10.10;67.09;98031.03;5103026;28;20393;-59
2022/02/08 14:24:47;;;;;;;3.22;1.00;;;;;;;10.13;67.14;98013.13;5089323;28;20405;-60
2022/02/08 14:30:16;;;;;;;2.38;1.02;;;;;;;9.82;68.07;98023.19;5038173;28;20395;-57
2022/02/08 14:36:01;;;;;;;3.60;1.10;;;;;;;9.99;67.89;98022.72;5030368;28;20407;-66
2022/02/08 15:08:26;;;;;;;2.20;1.00;;;;;;;9.75;69.38;98017.13;5009661;28;20498;-63
2022/02/08 15:10:54;;;;;;;2.90;1.05;;;;;;;9.64;69.96;98020.25;5044054;28;20466;-62
2022/02/08 15:13:25;;;;;;;2.40;0.90;;;;;;;9.54;70.26;98016.13;5062238;28;20393;-62
2022/02/08 15:18:37;;;;;;;2.30;0.80;;;;;;;9.51;70.79;98029.63;5087320;28;20417;-64
2022/02/08 15:21:05;;;;;;;0.80;0.70;;;;;;;9.56;71.38;98019.38;5091029;28;20420;-64
2022/02/08 15:23:30;;;;;;;2.42;0.90;;;;;;;9.55;71.22;98019.56;5091285;28;20968;-63
2022/02/08 15:25:58;;;;;;;3.93;1.30;;;;;;;8.98;73.41;98030.09;5084704;28;20386;-63
2022/02/08 15:28:25;;;;;;;1.55;0.77;;;;;;;9.17;72.86;98030.31;5091248;28;20394;-62
2022/02/08 15:30:55;;;;;;;0.83;0.70;;;;;;;9.22;72.66;98034.19;5071441;28;20383;-62
2022/02/08 15:33:21;;;;;;;2.92;0.90;;;;;;;9.07;73.37;98034.25;5089412;28;20900;-62
2022/02/08 15:35:46;;;;;;;2.57;1.00;;;;;;;8.98;74.03;98037.94;5066948;28;20408;-62
2022/02/08 15:38:12;;;;;;;2.43;0.80;;;;;;;8.87;74.52;98041.03;5074917;28;20398;-62
2022/02/08 15:40:38;;;;;;;1.35;0.90;;;;;;;8.83;74.88;98039.81;5089320;28;20418;-62
2022/02/08 15:43:03;;;;;;;1.60;0.80;;;;;;;8.97;74.61;98036.34;5091344;28;20393;-62
2022/02/08 15:45:33;;;;;;;1.20;0.90;;;;;;;9.03;75.59;98036.41;5090847;28;20455;-63
2022/02/08 15:48:00;;;;;;;1.35;0.82;;;;;;;9.12;74.67;98037.09;5087721;28;20783;-63
2022/02/08 15:53:29;;;;;;;2.60;1.00;;;;;;;8.98;74.93;98037.94;5091139;28;20425;-62
2022/02/08 16:00:10;;;;;;;2.00;0.90;;;;;;;9.11;74.43;98048.56;5074861;28;20771;-61
2022/02/08 16:12:08;;;;;;;1.80;1.00;;;;;;;8.61;77.89;98059.84;5073691;28;20465;-61
2022/02/08 16:20:35;;;;;;;3.10;0.90;;;;;;;8.63;78.63;98053.47;5084422;28;20480;-62
2022/02/08 16:25:37;;;;;;;2.42;0.98;;;;;;;8.63;79.02;98058.69;5074487;28;20468;-61
2022/02/08 16:28:27;;;;;;;1.40;1.10;;;;;;;8.82;78.20;98064.31;5074529;28;20391;-62
2022/02/08 16:54:44;;;;;;;1.83;1.08;;;;;;;8.20;82.46;98067.31;5094170;28;20394;-62
2022/02/08 16:59:37;;;;;;;1.27;1.17;;;;;;;8.11;82.48;98063.19;5082480;28;20459;-62
2022/02/08 17:02:04;;;;;;;3.23;1.40;;;;;;;8.20;82.48;98065.53;5086023;28;20406;-63
2022/02/08 17:04:30;;;;;;;2.40;1.20;;;;;;;8.23;82.16;98064.38;5093498;28;20490;-63
2022/02/08 17:06:56;;;;;;;2.45;1.30;;;;;;;8.37;81.46;98066.19;5092449;28;20408;-64
2022/02/08 17:09:37;;;;;;;1.57;1.00;;;;;;;8.23;82.46;98072.19;5090551;28;20428;-64
2022/02/08 17:12:28;;;;;;;1.70;1.20;;;;;;;8.29;82.07;98071.47;5059321;28;20402;-64
2022/02/08 17:15:22;;;;;;;2.10;1.20;;;;;;;8.40;80.59;98068.44;5088141;28;20502;-65
2022/02/08 17:34:38;;;;;;;2.83;1.10;;;;;;;8.52;78.61;98074.84;5093407;28;20946;-64
2022/02/08 17:47:41;;;;;;;6.05;1.67;;;;;;;8.66;76.88;98066.16;5073348;28;20402;-62
2022/02/08 17:50:16;;;;;;;4.55;2.40;;;;;;;8.63;76.33;98055.28;5084599;28;20883;-61
2022/02/08 17:52:43;;;;;;;5.15;3.08;;;;;;;8.55;77.27;98050.94;5072891;28;20884;-61
2022/02/08 17:55:10;;;;;;;3.95;1.50;;;;;;;8.73;76.46;98059.22;5061813;28;20761;-61
2022/02/08 17:57:36;;;;;;;3.17;1.75;;;;;;;8.66;76.04;98058.31;5072659;28;20411;-60
2022/02/08 18:00:07;;;;;;;3.20;1.60;;;;;;;8.62;76.50;98067.53;5072407;28;20412;-61
2022/02/08 18:02:32;;;;;;;3.00;1.38;;;;;;;8.52;76.71;98068.81;5091262;28;20402;-60
2022/02/08 18:05:00;;;;;;;3.10;1.30;;;;;;;8.60;76.00;98069.50;5083249;28;20403;-60
2022/02/08 18:07:25;;;;;;;2.42;1.30;;;;;;;8.69;75.57;98078.84;5081859;28;20409;-59
2022/02/08 18:09:52;;;;;;;2.78;1.40;;;;;;;8.69;75.41;98076.25;5066767;28;20420;-63
2022/02/08 18:12:20;;;;;;;3.47;1.70;;;;;;;8.51;75.97;98073.22;5072641;28;20554;-61
2022/02/08 18:14:53;;;;;;;2.30;1.60;;;;;;;8.72;74.85;98075.88;5073011;28;20423;-63
2022/02/08 18:17:25;;;;;;;2.88;1.35;;;;;;;8.43;76.03;98075.91;5071198;28;20766;-61
2022/02/08 18:19:59;;;;;;;4.70;1.40;;;;;;;8.52;75.78;98076.66;5071842;28;20542;-61
2022/02/08 18:22:36;;;;;;;2.28;1.60;;;;;;;8.55;75.75;98079.69;5072923;28;20875;-62
2022/02/08 19:11:40;;;;;;;1.48;1.10;;;;;;;8.53;75.14;98088.69;5083194;28;20426;-62
2022/02/08 19:23:50;;;;;;;2.67;1.27;;;;;;;8.18;76.22;98093.63;5092215;28;20949;-71